sensor_id;sensor_type;location;lat;lon;timestamp;temperature;humidity
9383;DHT22;4731;49.708;10.816;2024-01-16T00:00:36;-0.10;99.90
9383;DHT22;4731;49.708;10.816;2024-01-16T00:03:04;-0.40;99.90
9383;DHT22;4731;49.708;10.816;2024-01-16T00:05:32;-0.30;99.90
9383;DHT22;4731;49.708;10.816;2024-01-16T00:08:03;-0.50;99.90
9383;DHT22;4731;49.708;10.816;2024-01-16T00:10:35;-0.50;99.90
9383;DHT22;4731;49.708;10.816;2024-01-16T00:13:07;-0.50;99.90
9383;DHT22;4731;49.708;10.816;2024-01-16T00:15:37;-0.50;99.90
9383;DHT22;4731;49.708;10.816;2024-01-16T00:18:07;1.00;99.90
9383;DHT22;4731;49.708;10.816;2024-01-16T00:20:36;-2.70;99.90
9383;DHT22;4731;49.708;10.816;2024-01-16T00:23:06;-0.50;99.90
9383;DHT22;4731;49.708;10.816;2024-01-16T00:25:35;-0.60;99.90
9383;DHT22;4731;49.708;10.816;2024-01-16T00:28:04;-0.50;99.90
9383;DHT22;4731;49.708;10.816;2024-01-16T00:30:33;-0.60;99.90
9383;DHT22;4731;49.708;10.816;2024-01-16T00:33:02;-0.10;99.90
9383;DHT22;4731;49.708;10.816;2024-01-16T00:35:32;-0.60;99.90
9383;DHT22;4731;49.708;10.816;2024-01-16T00:38:00;-0.60;99.90
9383;DHT22;4731;49.708;10.816;2024-01-16T00:40:30;-0.70;99.90
9383;DHT22;4731;49.708;10.816;2024-01-16T00:43:00;-0.70;99.90
9383;DHT22;4731;49.708;10.816;2024-01-16T00:45:32;-0.50;99.90
9383;DHT22;4731;49.708;10.816;2024-01-16T00:48:02;-0.70;99.90
9383;DHT22;4731;49.708;10.816;2024-01-16T00:50:30;-0.70;99.90
9383;DHT22;4731;49.708;10.816;2024-01-16T00:52:57;-0.70;99.90
9383;DHT22;4731;49.708;10.816;2024-01-16T00:55:24;-0.80;99.90
9383;DHT22;4731;49.708;10.816;2024-01-16T00:57:53;-0.80;99.90
9383;DHT22;4731;49.708;10.816;2024-01-16T01:00:19;-0.80;99.90
9383;DHT22;4731;49.708;10.816;2024-01-16T01:02:46;-0.80;99.90
9383;DHT22;4731;49.708;10.816;2024-01-16T01:05:13;-0.80;99.90
9383;DHT22;4731;49.708;10.816;2024-01-16T01:07:40;-0.80;99.90
9383;DHT22;4731;49.708;10.816;2024-01-16T01:10:06;-0.80;99.90
9383;DHT22;4731;49.708;10.816;2024-01-16T01:12:33;-0.80;99.90
9383;DHT22;4731;49.708;10.816;2024-01-16T01:15:01;-0.80;99.90
9383;DHT22;4731;49.708;10.816;2024-01-16T01:17:28;-0.80;99.90
9383;DHT22;4731;49.708;10.816;2024-01-16T01:19:55;-0.80;99.90
9383;DHT22;4731;49.708;10.816;2024-01-16T01:22:21;-0.70;99.90
9383;DHT22;4731;49.708;10.816;2024-01-16T01:24:48;-0.80;99.90
9383;DHT22;4731;49.708;10.816;2024-01-16T01:27:15;-0.80;99.90
9383;DHT22;4731;49.708;10.816;2024-01-16T01:29:42;-0.80;99.90
9383;DHT22;4731;49.708;10.816;2024-01-16T01:32:10;-0.80;99.90
9383;DHT22;4731;49.708;10.816;2024-01-16T01:34:36;-0.90;99.90
9383;DHT22;4731;49.708;10.816;2024-01-16T01:37:03;-0.80;99.90
9383;DHT22;4731;49.708;10.816;2024-01-16T01:39:30;-0.80;99.90
9383;DHT22;4731;49.708;10.816;2024-01-16T01:41:57;-0.80;99.90
9383;DHT22;4731;49.708;10.816;2024-01-16T01:44:24;-0.80;99.90
9383;DHT22;4731;49.708;10.816;2024-01-16T01:46:51;-0.80;99.90
9383;DHT22;4731;49.708;10.816;2024-01-16T01:49:22;-0.80;99.90
9383;DHT22;4731;49.708;10.816;2024-01-16T01:51:49;1.10;99.90
9383;DHT22;4731;49.708;10.816;2024-01-16T01:54:17;-0.80;99.90
9383;DHT22;4731;49.708;10.816;2024-01-16T01:56:44;-0.80;99.90
9383;DHT22;4731;49.708;10.816;2024-01-16T01:59:13;-0.80;99.90
9383;DHT22;4731;49.708;10.816;2024-01-16T02:01:41;-0.90;99.90
9383;DHT22;4731;49.708;10.816;2024-01-16T02:04:08;-0.90;99.90
9383;DHT22;4731;49.708;10.816;2024-01-16T02:06:38;-0.80;99.90
9383;DHT22;4731;49.708;10.816;2024-01-16T02:09:05;-0.80;99.90
9383;DHT22;4731;49.708;10.816;2024-01-16T02:11:33;-0.80;99.90
9383;DHT22;4731;49.708;10.816;2024-01-16T02:14:00;-0.80;99.90
9383;DHT22;4731;49.708;10.816;2024-01-16T02:16:26;-0.80;99.90
9383;DHT22;4731;49.708;10.816;2024-01-16T02:18:53;-0.80;99.90
9383;DHT22;4731;49.708;10.816;2024-01-16T02:21:21;-0.80;99.90
9383;DHT22;4731;49.708;10.816;2024-01-16T02:23:50;-0.80;99.90
9383;DHT22;4731;49.708;10.816;2024-01-16T02:26:17;-0.80;99.90
9383;DHT22;4731;49.708;10.816;2024-01-16T02:28:44;-0.80;99.90
9383;DHT22;4731;49.708;10.816;2024-01-16T02:31:11;-0.80;99.90
9383;DHT22;4731;49.708;10.816;2024-01-16T02:33:38;-0.80;99.90
9383;DHT22;4731;49.708;10.816;2024-01-16T02:36:05;-0.80;99.90
9383;DHT22;4731;49.708;10.816;2024-01-16T02:38:31;-0.80;99.90
9383;DHT22;4731;49.708;10.816;2024-01-16T02:40:59;-0.80;99.90
9383;DHT22;4731;49.708;10.816;2024-01-16T02:43:26;-0.80;99.90
9383;DHT22;4731;49.708;10.816;2024-01-16T02:45:53;-0.80;99.90
9383;DHT22;4731;49.708;10.816;2024-01-16T02:48:20;-0.80;99.90
9383;DHT22;4731;49.708;10.816;2024-01-16T02:50:47;-0.80;99.90
9383;DHT22;4731;49.708;10.816;2024-01-16T02:53:14;-0.80;99.90
9383;DHT22;4731;49.708;10.816;2024-01-16T02:55:41;-0.70;99.90
9383;DHT22;4731;49.708;10.816;2024-01-16T02:58:09;-0.80;99.90
9383;DHT22;4731;49.708;10.816;2024-01-16T03:00:36;-0.90;99.90
9383;DHT22;4731;49.708;10.816;2024-01-16T03:03:03;-0.90;99.90
9383;DHT22;4731;49.708;10.816;2024-01-16T03:05:30;-1.00;99.90
9383;DHT22;4731;49.708;10.816;2024-01-16T03:07:56;-1.00;99.90
9383;DHT22;4731;49.708;10.816;2024-01-16T03:10:23;-1.00;99.90
9383;DHT22;4731;49.708;10.816;2024-01-16T03:12:50;-1.00;99.90
9383;DHT22;4731;49.708;10.816;2024-01-16T03:15:18;-1.00;99.90
9383;DHT22;4731;49.708;10.816;2024-01-16T03:17:45;-1.00;99.90
9383;DHT22;4731;49.708;10.816;2024-01-16T03:20:12;-0.90;99.90
9383;DHT22;4731;49.708;10.816;2024-01-16T03:22:42;-1.20;99.90
9383;DHT22;4731;49.708;10.816;2024-01-16T03:25:10;-1.10;99.90
9383;DHT22;4731;49.708;10.816;2024-01-16T03:27:37;-1.10;99.90
9383;DHT22;4731;49.708;10.816;2024-01-16T03:30:05;-1.10;99.90
9383;DHT22;4731;49.708;10.816;2024-01-16T03:32:35;-1.10;99.90
9383;DHT22;4731;49.708;10.816;2024-01-16T03:35:02;-1.10;99.90
9383;DHT22;4731;49.708;10.816;2024-01-16T03:37:28;-1.20;99.90
9383;DHT22;4731;49.708;10.816;2024-01-16T03:39:55;-1.10;99.90
9383;DHT22;4731;49.708;10.816;2024-01-16T03:42:22;-1.10;99.90
9383;DHT22;4731;49.708;10.816;2024-01-16T03:44:49;-3.10;99.90
9383;DHT22;4731;49.708;10.816;2024-01-16T03:47:16;-1.10;99.90
9383;DHT22;4731;49.708;10.816;2024-01-16T03:49:44;-1.10;99.90
9383;DHT22;4731;49.708;10.816;2024-01-16T03:52:12;-1.20;99.90
9383;DHT22;4731;49.708;10.816;2024-01-16T03:54:38;-1.20;99.90
9383;DHT22;4731;49.708;10.816;2024-01-16T03:57:05;-1.20;99.90
9383;DHT22;4731;49.708;10.816;2024-01-16T03:59:32;-1.20;99.90
9383;DHT22;4731;49.708;10.816;2024-01-16T04:02:00;-1.10;99.90
9383;DHT22;4731;49.708;10.816;2024-01-16T04:04:28;-1.10;99.90
9383;DHT22;4731;49.708;10.816;2024-01-16T04:06:56;-1.10;99.90
9383;DHT22;4731;49.708;10.816;2024-01-16T04:09:22;-1.10;99.90
9383;DHT22;4731;49.708;10.816;2024-01-16T04:11:50;-1.10;99.90
9383;DHT22;4731;49.708;10.816;2024-01-16T04:14:17;-1.00;99.90
9383;DHT22;4731;49.708;10.816;2024-01-16T04:16:43;-1.10;99.90
9383;DHT22;4731;49.708;10.816;2024-01-16T04:19:10;-1.20;99.90
9383;DHT22;4731;49.708;10.816;2024-01-16T04:21:37;-1.30;99.90
9383;DHT22;4731;49.708;10.816;2024-01-16T04:24:05;-1.40;99.90
9383;DHT22;4731;49.708;10.816;2024-01-16T04:26:32;-1.20;99.90
9383;DHT22;4731;49.708;10.816;2024-01-16T04:29:01;-1.60;99.90
9383;DHT22;4731;49.708;10.816;2024-01-16T04:31:29;-2.90;99.90
9383;DHT22;4731;49.708;10.816;2024-01-16T04:33:56;-1.70;99.90
9383;DHT22;4731;49.708;10.816;2024-01-16T04:36:23;-1.80;99.90
9383;DHT22;4731;49.708;10.816;2024-01-16T04:38:50;-0.70;99.90
9383;DHT22;4731;49.708;10.816;2024-01-16T04:41:19;-1.80;99.90
9383;DHT22;4731;49.708;10.816;2024-01-16T04:43:46;0.00;99.90
9383;DHT22;4731;49.708;10.816;2024-01-16T04:46:14;-1.80;99.90
9383;DHT22;4731;49.708;10.816;2024-01-16T04:48:41;-1.80;99.90
9383;DHT22;4731;49.708;10.816;2024-01-16T04:51:07;-2.60;99.90
9383;DHT22;4731;49.708;10.816;2024-01-16T04:53:34;-1.70;99.90
9383;DHT22;4731;49.708;10.816;2024-01-16T04:56:01;-1.80;99.90
9383;DHT22;4731;49.708;10.816;2024-01-16T04:58:30;-1.60;99.90
9383;DHT22;4731;49.708;10.816;2024-01-16T05:00:57;-1.70;99.90
9383;DHT22;4731;49.708;10.816;2024-01-16T05:03:24;-1.70;99.90
9383;DHT22;4731;49.708;10.816;2024-01-16T05:05:51;-1.80;99.90
9383;DHT22;4731;49.708;10.816;2024-01-16T05:08:18;-1.90;99.90
9383;DHT22;4731;49.708;10.816;2024-01-16T05:10:44;-1.80;99.90
9383;DHT22;4731;49.708;10.816;2024-01-16T05:13:11;-1.80;99.90
9383;DHT22;4731;49.708;10.816;2024-01-16T05:15:40;-1.80;99.90
9383;DHT22;4731;49.708;10.816;2024-01-16T05:18:07;-1.80;99.90
9383;DHT22;4731;49.708;10.816;2024-01-16T05:20:34;-1.70;99.90
9383;DHT22;4731;49.708;10.816;2024-01-16T05:23:01;-1.70;99.90
9383;DHT22;4731;49.708;10.816;2024-01-16T05:25:28;-1.70;99.90
9383;DHT22;4731;49.708;10.816;2024-01-16T05:27:55;-1.60;99.90
9383;DHT22;4731;49.708;10.816;2024-01-16T05:30:22;-1.60;99.90
9383;DHT22;4731;49.708;10.816;2024-01-16T05:32:52;-1.60;99.90
9383;DHT22;4731;49.708;10.816;2024-01-16T05:35:19;-1.50;99.90
9383;DHT22;4731;49.708;10.816;2024-01-16T05:37:46;-1.50;99.90
9383;DHT22;4731;49.708;10.816;2024-01-16T05:40:13;-1.50;99.90
9383;DHT22;4731;49.708;10.816;2024-01-16T05:42:40;-1.40;99.90
9383;DHT22;4731;49.708;10.816;2024-01-16T05:45:08;-1.50;99.90
9383;DHT22;4731;49.708;10.816;2024-01-16T05:47:35;-1.40;99.90
9383;DHT22;4731;49.708;10.816;2024-01-16T05:50:04;-1.40;99.90
9383;DHT22;4731;49.708;10.816;2024-01-16T05:52:30;-1.40;99.90
9383;DHT22;4731;49.708;10.816;2024-01-16T05:54:57;-1.30;99.90
9383;DHT22;4731;49.708;10.816;2024-01-16T05:57:25;-1.40;99.90
9383;DHT22;4731;49.708;10.816;2024-01-16T05:59:51;-1.30;99.90
9383;DHT22;4731;49.708;10.816;2024-01-16T06:02:19;-1.30;99.90
9383;DHT22;4731;49.708;10.816;2024-01-16T06:04:45;-1.30;99.90
9383;DHT22;4731;49.708;10.816;2024-01-16T06:07:14;0.20;99.90
9383;DHT22;4731;49.708;10.816;2024-01-16T06:09:41;-1.30;99.90
9383;DHT22;4731;49.708;10.816;2024-01-16T06:12:09;-1.30;99.90
9383;DHT22;4731;49.708;10.816;2024-01-16T06:17:04;-1.30;99.90
9383;DHT22;4731;49.708;10.816;2024-01-16T06:19:32;-1.30;99.90
9383;DHT22;4731;49.708;10.816;2024-01-16T06:21:59;-1.40;99.90
9383;DHT22;4731;49.708;10.816;2024-01-16T06:24:27;-1.40;99.90
9383;DHT22;4731;49.708;10.816;2024-01-16T06:26:54;-1.40;99.90
9383;DHT22;4731;49.708;10.816;2024-01-16T06:29:21;-1.40;99.90
9383;DHT22;4731;49.708;10.816;2024-01-16T06:31:50;-1.60;99.90
9383;DHT22;4731;49.708;10.816;2024-01-16T06:34:17;-1.50;99.90
9383;DHT22;4731;49.708;10.816;2024-01-16T06:36:43;-1.50;99.90
9383;DHT22;4731;49.708;10.816;2024-01-16T06:39:10;-1.50;99.90
9383;DHT22;4731;49.708;10.816;2024-01-16T06:41:40;-1.50;99.90
9383;DHT22;4731;49.708;10.816;2024-01-16T06:44:07;-1.50;99.90
9383;DHT22;4731;49.708;10.816;2024-01-16T06:46:34;-1.50;99.90
9383;DHT22;4731;49.708;10.816;2024-01-16T06:49:01;-1.60;99.90
9383;DHT22;4731;49.708;10.816;2024-01-16T06:51:28;-1.60;99.90
9383;DHT22;4731;49.708;10.816;2024-01-16T06:53:55;-1.70;99.90
9383;DHT22;4731;49.708;10.816;2024-01-16T06:56:21;-1.70;99.90
9383;DHT22;4731;49.708;10.816;2024-01-16T06:58:51;-1.80;99.90
9383;DHT22;4731;49.708;10.816;2024-01-16T07:01:18;-1.80;99.90
9383;DHT22;4731;49.708;10.816;2024-01-16T07:03:45;-1.80;99.90
9383;DHT22;4731;49.708;10.816;2024-01-16T07:06:12;1.30;99.90
9383;DHT22;4731;49.708;10.816;2024-01-16T07:08:39;0.70;99.90
9383;DHT22;4731;49.708;10.816;2024-01-16T07:11:06;-1.70;99.90
9383;DHT22;4731;49.708;10.816;2024-01-16T07:13:34;-1.70;99.90
9383;DHT22;4731;49.708;10.816;2024-01-16T07:16:02;-1.70;99.90
9383;DHT22;4731;49.708;10.816;2024-01-16T07:18:29;-1.70;99.90
9383;DHT22;4731;49.708;10.816;2024-01-16T07:20:56;-1.60;99.90
9383;DHT22;4731;49.708;10.816;2024-01-16T07:23:22;-1.60;99.90
9383;DHT22;4731;49.708;10.816;2024-01-16T07:25:49;-1.60;99.90
9383;DHT22;4731;49.708;10.816;2024-01-16T07:28:16;-1.70;99.90
9383;DHT22;4731;49.708;10.816;2024-01-16T07:30:43;-1.70;99.90
9383;DHT22;4731;49.708;10.816;2024-01-16T07:33:11;-1.90;99.90
9383;DHT22;4731;49.708;10.816;2024-01-16T07:35:37;-1.80;99.90
9383;DHT22;4731;49.708;10.816;2024-01-16T07:38:06;-1.80;99.90
9383;DHT22;4731;49.708;10.816;2024-01-16T07:40:33;-1.80;99.90
9383;DHT22;4731;49.708;10.816;2024-01-16T07:43:00;-1.70;99.90
9383;DHT22;4731;49.708;10.816;2024-01-16T07:45:27;-1.70;99.90
9383;DHT22;4731;49.708;10.816;2024-01-16T07:47:53;-1.50;99.90
9383;DHT22;4731;49.708;10.816;2024-01-16T07:50:21;-1.50;99.90
9383;DHT22;4731;49.708;10.816;2024-01-16T07:52:48;-1.40;99.90
9383;DHT22;4731;49.708;10.816;2024-01-16T07:55:16;-1.40;99.90
9383;DHT22;4731;49.708;10.816;2024-01-16T07:57:43;-1.40;99.90
9383;DHT22;4731;49.708;10.816;2024-01-16T08:00:11;-1.50;99.90
9383;DHT22;4731;49.708;10.816;2024-01-16T08:02:38;-1.50;99.90
9383;DHT22;4731;49.708;10.816;2024-01-16T08:05:07;-1.40;99.90
9383;DHT22;4731;49.708;10.816;2024-01-16T08:07:35;-1.30;99.90
9383;DHT22;4731;49.708;10.816;2024-01-16T08:10:02;-1.30;99.90
9383;DHT22;4731;49.708;10.816;2024-01-16T08:12:29;-1.30;99.90
9383;DHT22;4731;49.708;10.816;2024-01-16T08:14:56;-1.20;99.90
9383;DHT22;4731;49.708;10.816;2024-01-16T08:17:22;-1.10;99.90
9383;DHT22;4731;49.708;10.816;2024-01-16T08:19:49;-1.10;99.90
9383;DHT22;4731;49.708;10.816;2024-01-16T08:22:16;-1.10;99.90
9383;DHT22;4731;49.708;10.816;2024-01-16T08:24:44;-0.90;99.90
9383;DHT22;4731;49.708;10.816;2024-01-16T08:27:12;-0.90;99.90
9383;DHT22;4731;49.708;10.816;2024-01-16T08:29:39;-0.90;99.90
9383;DHT22;4731;49.708;10.816;2024-01-16T08:32:06;-0.90;99.90
9383;DHT22;4731;49.708;10.816;2024-01-16T08:34:32;-0.80;99.90
9383;DHT22;4731;49.708;10.816;2024-01-16T08:36:59;-0.90;99.90
9383;DHT22;4731;49.708;10.816;2024-01-16T08:39:26;-0.80;99.90
9383;DHT22;4731;49.708;10.816;2024-01-16T08:41:55;-0.70;99.90
9383;DHT22;4731;49.708;10.816;2024-01-16T08:44:23;-0.60;99.90
9383;DHT22;4731;49.708;10.816;2024-01-16T08:46:49;-0.60;99.90
9383;DHT22;4731;49.708;10.816;2024-01-16T08:49:16;-0.50;99.90
9383;DHT22;4731;49.708;10.816;2024-01-16T08:51:43;-0.60;99.90
9383;DHT22;4731;49.708;10.816;2024-01-16T08:54:10;-0.60;99.90
9383;DHT22;4731;49.708;10.816;2024-01-16T08:56:37;2.40;99.90
9383;DHT22;4731;49.708;10.816;2024-01-16T08:59:05;-0.60;99.90
9383;DHT22;4731;49.708;10.816;2024-01-16T09:01:32;-0.70;99.90
9383;DHT22;4731;49.708;10.816;2024-01-16T09:03:58;-0.70;99.90
9383;DHT22;4731;49.708;10.816;2024-01-16T09:06:25;-0.70;99.90
9383;DHT22;4731;49.708;10.816;2024-01-16T09:08:52;-0.70;99.90
9383;DHT22;4731;49.708;10.816;2024-01-16T09:11:18;-0.70;99.90
9383;DHT22;4731;49.708;10.816;2024-01-16T09:13:45;-0.60;99.90
9383;DHT22;4731;49.708;10.816;2024-01-16T09:16:14;0.00;99.90
9383;DHT22;4731;49.708;10.816;2024-01-16T09:18:40;-0.60;99.90
9383;DHT22;4731;49.708;10.816;2024-01-16T09:21:07;-0.50;99.90
9383;DHT22;4731;49.708;10.816;2024-01-16T09:23:34;-0.40;99.90
9383;DHT22;4731;49.708;10.816;2024-01-16T09:26:00;-0.40;99.90
9383;DHT22;4731;49.708;10.816;2024-01-16T09:28:27;-0.30;99.90
9383;DHT22;4731;49.708;10.816;2024-01-16T09:30:54;-0.40;99.90
9383;DHT22;4731;49.708;10.816;2024-01-16T09:33:23;-0.40;99.90
9383;DHT22;4731;49.708;10.816;2024-01-16T09:35:50;-0.30;99.90
9383;DHT22;4731;49.708;10.816;2024-01-16T09:38:18;-0.20;99.90
9383;DHT22;4731;49.708;10.816;2024-01-16T09:40:46;-0.10;99.90
9383;DHT22;4731;49.708;10.816;2024-01-16T09:43:13;-0.20;99.90
9383;DHT22;4731;49.708;10.816;2024-01-16T09:45:40;-0.20;99.90
9383;DHT22;4731;49.708;10.816;2024-01-16T09:48:07;-0.10;99.90
9383;DHT22;4731;49.708;10.816;2024-01-16T09:50:36;0.10;99.90
9383;DHT22;4731;49.708;10.816;2024-01-16T09:53:03;0.10;99.90
9383;DHT22;4731;49.708;10.816;2024-01-16T09:55:30;0.30;99.90
9383;DHT22;4731;49.708;10.816;2024-01-16T09:57:57;0.40;99.90
9383;DHT22;4731;49.708;10.816;2024-01-16T10:00:24;0.30;99.90
9383;DHT22;4731;49.708;10.816;2024-01-16T10:02:53;0.30;99.90
9383;DHT22;4731;49.708;10.816;2024-01-16T10:05:24;0.40;99.90
9383;DHT22;4731;49.708;10.816;2024-01-16T10:07:52;0.40;99.90
9383;DHT22;4731;49.708;10.816;2024-01-16T10:10:19;0.30;99.90
9383;DHT22;4731;49.708;10.816;2024-01-16T10:12:48;0.40;99.90
9383;DHT22;4731;49.708;10.816;2024-01-16T10:15:16;0.50;99.90
9383;DHT22;4731;49.708;10.816;2024-01-16T10:17:43;0.50;99.90
9383;DHT22;4731;49.708;10.816;2024-01-16T10:20:11;0.50;99.90
9383;DHT22;4731;49.708;10.816;2024-01-16T10:22:39;0.50;99.90
9383;DHT22;4731;49.708;10.816;2024-01-16T10:25:09;0.50;99.90
9383;DHT22;4731;49.708;10.816;2024-01-16T10:27:39;1.40;99.90
9383;DHT22;4731;49.708;10.816;2024-01-16T10:30:07;0.50;99.90
9383;DHT22;4731;49.708;10.816;2024-01-16T10:32:35;0.50;99.90
9383;DHT22;4731;49.708;10.816;2024-01-16T10:35:07;0.50;99.90
9383;DHT22;4731;49.708;10.816;2024-01-16T10:37:43;0.40;99.90
9383;DHT22;4731;49.708;10.816;2024-01-16T10:40:14;0.30;99.90
9383;DHT22;4731;49.708;10.816;2024-01-16T10:42:42;0.40;99.90
9383;DHT22;4731;49.708;10.816;2024-01-16T10:45:16;0.50;99.90
9383;DHT22;4731;49.708;10.816;2024-01-16T10:47:43;0.60;99.90
9383;DHT22;4731;49.708;10.816;2024-01-16T10:50:10;0.50;99.90
9383;DHT22;4731;49.708;10.816;2024-01-16T10:52:46;0.50;99.90
9383;DHT22;4731;49.708;10.816;2024-01-16T10:55:19;0.40;99.90
9383;DHT22;4731;49.708;10.816;2024-01-16T10:57:48;0.40;99.90
9383;DHT22;4731;49.708;10.816;2024-01-16T11:00:17;1.30;99.90
9383;DHT22;4731;49.708;10.816;2024-01-16T11:02:50;0.40;99.90
9383;DHT22;4731;49.708;10.816;2024-01-16T11:05:18;0.60;99.90
9383;DHT22;4731;49.708;10.816;2024-01-16T11:07:46;0.60;99.90
9383;DHT22;4731;49.708;10.816;2024-01-16T11:10:16;0.80;99.90
9383;DHT22;4731;49.708;10.816;2024-01-16T11:12:44;0.80;99.90
9383;DHT22;4731;49.708;10.816;2024-01-16T11:15:12;0.70;99.90
9383;DHT22;4731;49.708;10.816;2024-01-16T11:17:40;0.60;99.90
9383;DHT22;4731;49.708;10.816;2024-01-16T11:20:11;0.60;99.90
9383;DHT22;4731;49.708;10.816;2024-01-16T11:22:41;0.60;99.90
9383;DHT22;4731;49.708;10.816;2024-01-16T11:25:09;0.40;99.90
9383;DHT22;4731;49.708;10.816;2024-01-16T11:27:38;0.50;99.90
9383;DHT22;4731;49.708;10.816;2024-01-16T11:30:06;-1.00;99.90
9383;DHT22;4731;49.708;10.816;2024-01-16T11:32:35;0.50;99.90
9383;DHT22;4731;49.708;10.816;2024-01-16T11:35:02;0.70;99.90
9383;DHT22;4731;49.708;10.816;2024-01-16T11:37:30;1.00;99.90
9383;DHT22;4731;49.708;10.816;2024-01-16T11:40:20;1.00;99.90
9383;DHT22;4731;49.708;10.816;2024-01-16T11:42:49;1.20;99.90
9383;DHT22;4731;49.708;10.816;2024-01-16T11:45:50;1.30;99.90
9383;DHT22;4731;49.708;10.816;2024-01-16T11:48:18;1.40;99.90
9383;DHT22;4731;49.708;10.816;2024-01-16T11:50:46;1.60;99.90
9383;DHT22;4731;49.708;10.816;2024-01-16T11:53:31;1.40;99.90
9383;DHT22;4731;49.708;10.816;2024-01-16T11:56:20;2.50;99.90
9383;DHT22;4731;49.708;10.816;2024-01-16T11:59:01;2.90;99.90
9383;DHT22;4731;49.708;10.816;2024-01-16T12:01:35;3.70;99.90
9383;DHT22;4731;49.708;10.816;2024-01-16T12:04:03;4.60;99.90
9383;DHT22;4731;49.708;10.816;2024-01-16T12:06:30;4.30;99.90
9383;DHT22;4731;49.708;10.816;2024-01-16T12:09:10;4.00;99.90
9383;DHT22;4731;49.708;10.816;2024-01-16T12:11:37;3.60;99.90
9383;DHT22;4731;49.708;10.816;2024-01-16T12:14:05;3.40;99.90
9383;DHT22;4731;49.708;10.816;2024-01-16T12:16:32;3.30;99.90
9383;DHT22;4731;49.708;10.816;2024-01-16T12:19:05;3.50;99.90
9383;DHT22;4731;49.708;10.816;2024-01-16T12:21:33;4.10;99.90
9383;DHT22;4731;49.708;10.816;2024-01-16T12:24:00;4.10;99.90
9383;DHT22;4731;49.708;10.816;2024-01-16T12:26:27;5.00;99.90
9383;DHT22;4731;49.708;10.816;2024-01-16T12:28:54;5.10;99.90
9383;DHT22;4731;49.708;10.816;2024-01-16T12:31:22;5.10;99.90
9383;DHT22;4731;49.708;10.816;2024-01-16T12:33:50;4.90;99.90
9383;DHT22;4731;49.708;10.816;2024-01-16T12:38:44;4.90;99.90
9383;DHT22;4731;49.708;10.816;2024-01-16T12:41:11;5.20;99.90
9383;DHT22;4731;49.708;10.816;2024-01-16T12:43:39;5.00;99.90
9383;DHT22;4731;49.708;10.816;2024-01-16T12:46:05;6.60;99.90
9383;DHT22;4731;49.708;10.816;2024-01-16T12:48:34;4.70;99.90
9383;DHT22;4731;49.708;10.816;2024-01-16T12:51:02;4.50;99.90
9383;DHT22;4731;49.708;10.816;2024-01-16T12:53:30;4.60;99.90
9383;DHT22;4731;49.708;10.816;2024-01-16T12:56:00;4.30;99.90
9383;DHT22;4731;49.708;10.816;2024-01-16T12:58:32;3.90;99.90
9383;DHT22;4731;49.708;10.816;2024-01-16T13:01:21;3.60;99.90
9383;DHT22;4731;49.708;10.816;2024-01-16T13:03:50;3.60;99.90
9383;DHT22;4731;49.708;10.816;2024-01-16T13:06:18;3.40;99.90
9383;DHT22;4731;49.708;10.816;2024-01-16T13:08:45;3.20;99.90
9383;DHT22;4731;49.708;10.816;2024-01-16T13:11:13;3.10;99.90
9383;DHT22;4731;49.708;10.816;2024-01-16T13:13:41;2.90;99.90
9383;DHT22;4731;49.708;10.816;2024-01-16T13:16:08;2.60;99.90
9383;DHT22;4731;49.708;10.816;2024-01-16T13:18:35;2.30;99.90
9383;DHT22;4731;49.708;10.816;2024-01-16T13:21:03;2.00;99.90
9383;DHT22;4731;49.708;10.816;2024-01-16T13:23:31;2.00;99.90
9383;DHT22;4731;49.708;10.816;2024-01-16T13:28:26;3.90;99.90
9383;DHT22;4731;49.708;10.816;2024-01-16T13:30:53;2.10;99.90
9383;DHT22;4731;49.708;10.816;2024-01-16T13:33:20;2.10;99.90
9383;DHT22;4731;49.708;10.816;2024-01-16T13:35:47;2.00;99.90
9383;DHT22;4731;49.708;10.816;2024-01-16T13:38:16;1.90;99.90
9383;DHT22;4731;49.708;10.816;2024-01-16T13:40:42;1.90;99.90
9383;DHT22;4731;49.708;10.816;2024-01-16T13:43:09;1.90;99.90
9383;DHT22;4731;49.708;10.816;2024-01-16T13:45:37;1.60;99.90
9383;DHT22;4731;49.708;10.816;2024-01-16T13:48:04;1.50;99.90
9383;DHT22;4731;49.708;10.816;2024-01-16T13:50:32;1.70;99.90
9383;DHT22;4731;49.708;10.816;2024-01-16T13:52:59;1.70;99.90
9383;DHT22;4731;49.708;10.816;2024-01-16T13:55:28;1.90;99.90
9383;DHT22;4731;49.708;10.816;2024-01-16T13:57:55;2.30;99.90
9383;DHT22;4731;49.708;10.816;2024-01-16T14:00:23;2.10;99.90
9383;DHT22;4731;49.708;10.816;2024-01-16T14:02:50;2.20;99.90
9383;DHT22;4731;49.708;10.816;2024-01-16T14:05:18;2.10;99.90
9383;DHT22;4731;49.708;10.816;2024-01-16T14:07:46;1.90;99.90
9383;DHT22;4731;49.708;10.816;2024-01-16T14:10:14;1.80;99.90
9383;DHT22;4731;49.708;10.816;2024-01-16T14:12:43;1.80;99.90
9383;DHT22;4731;49.708;10.816;2024-01-16T14:15:10;1.70;99.90
9383;DHT22;4731;49.708;10.816;2024-01-16T14:17:44;1.70;99.90
9383;DHT22;4731;49.708;10.816;2024-01-16T14:20:12;1.60;99.90
9383;DHT22;4731;49.708;10.816;2024-01-16T14:22:39;1.40;99.90
9383;DHT22;4731;49.708;10.816;2024-01-16T14:27:37;1.30;99.90
9383;DHT22;4731;49.708;10.816;2024-01-16T14:30:07;1.00;99.90
9383;DHT22;4731;49.708;10.816;2024-01-16T14:32:36;1.20;99.90
9383;DHT22;4731;49.708;10.816;2024-01-16T14:35:06;1.10;99.90
9383;DHT22;4731;49.708;10.816;2024-01-16T14:37:38;1.10;99.90
9383;DHT22;4731;49.708;10.816;2024-01-16T14:40:06;1.00;99.90
9383;DHT22;4731;49.708;10.816;2024-01-16T14:42:37;0.90;99.90
9383;DHT22;4731;49.708;10.816;2024-01-16T14:45:06;3.00;99.90
9383;DHT22;4731;49.708;10.816;2024-01-16T14:47:33;0.80;99.90
9383;DHT22;4731;49.708;10.816;2024-01-16T14:50:00;0.70;99.90
9383;DHT22;4731;49.708;10.816;2024-01-16T14:52:29;0.80;99.90
9383;DHT22;4731;49.708;10.816;2024-01-16T14:54:57;0.70;99.90
9383;DHT22;4731;49.708;10.816;2024-01-16T14:57:23;0.60;99.90
9383;DHT22;4731;49.708;10.816;2024-01-16T14:59:50;0.50;99.90
9383;DHT22;4731;49.708;10.816;2024-01-16T15:02:18;0.50;99.90
9383;DHT22;4731;49.708;10.816;2024-01-16T15:14:35;0.50;99.90
9383;DHT22;4731;49.708;10.816;2024-01-16T15:17:02;0.40;99.90
9383;DHT22;4731;49.708;10.816;2024-01-16T15:24:25;0.30;99.90
9383;DHT22;4731;49.708;10.816;2024-01-16T15:26:54;0.30;99.90
9383;DHT22;4731;49.708;10.816;2024-01-16T15:29:21;0.30;99.90
9383;DHT22;4731;49.708;10.816;2024-01-16T15:34:15;-0.50;99.90
9383;DHT22;4731;49.708;10.816;2024-01-16T15:36:44;0.10;99.90
9383;DHT22;4731;49.708;10.816;2024-01-16T15:39:11;0.10;99.90
9383;DHT22;4731;49.708;10.816;2024-01-16T15:41:38;0.10;99.90
9383;DHT22;4731;49.708;10.816;2024-01-16T15:44:05;0.00;99.90
9383;DHT22;4731;49.708;10.816;2024-01-16T15:46:32;0.00;99.90
9383;DHT22;4731;49.708;10.816;2024-01-16T15:48:58;0.00;99.90
9383;DHT22;4731;49.708;10.816;2024-01-16T15:51:26;-0.10;99.90
9383;DHT22;4731;49.708;10.816;2024-01-16T15:53:54;-0.10;99.90
9383;DHT22;4731;49.708;10.816;2024-01-16T15:56:21;-0.20;99.90
9383;DHT22;4731;49.708;10.816;2024-01-16T15:58:49;-0.20;99.90
9383;DHT22;4731;49.708;10.816;2024-01-16T16:01:16;-0.20;99.90
9383;DHT22;4731;49.708;10.816;2024-01-16T16:03:43;-0.30;99.90
9383;DHT22;4731;49.708;10.816;2024-01-16T16:06:10;-0.30;99.90
9383;DHT22;4731;49.708;10.816;2024-01-16T16:08:38;-0.30;99.90
9383;DHT22;4731;49.708;10.816;2024-01-16T16:11:08;-0.30;99.90
9383;DHT22;4731;49.708;10.816;2024-01-16T16:13:35;-0.30;99.90
9383;DHT22;4731;49.708;10.816;2024-01-16T16:16:02;-0.30;99.90
9383;DHT22;4731;49.708;10.816;2024-01-16T16:18:29;-0.30;99.90
9383;DHT22;4731;49.708;10.816;2024-01-16T16:20:59;-0.40;99.90
9383;DHT22;4731;49.708;10.816;2024-01-16T16:23:27;-0.40;99.90